createdAt,value
2023-01-17T00:00:43.482Z,8.10
2023-01-17T00:02:46.252Z,8.10
2023-01-17T00:05:06.796Z,8.10
2023-01-17T00:07:29.784Z,8.20
2023-01-17T00:09:50.129Z,8.20
2023-01-17T00:11:52.833Z,8.20
2023-01-17T00:13:56.840Z,8.10
2023-01-17T00:15:59.610Z,8.10
2023-01-17T00:18:02.293Z,8.10
2023-01-17T00:20:34.952Z,8.10
2023-01-17T00:22:55.906Z,8.10
2023-01-17T00:25:16.023Z,8.10
2023-01-17T00:27:17.705Z,8.10
2023-01-17T00:29:20.756Z,8.00
2023-01-17T00:31:22.446Z,8.10
2023-01-17T00:33:24.950Z,8.00
2023-01-17T00:35:29.099Z,8.10
2023-01-17T00:37:30.765Z,8.10
2023-01-17T00:39:32.438Z,8.10
2023-01-17T00:41:34.125Z,8.10
2023-01-17T00:43:54.419Z,8.00
2023-01-17T00:46:16.204Z,7.90
2023-01-17T00:48:36.727Z,7.90
2023-01-17T00:50:56.837Z,7.70
2023-01-17T00:53:22.359Z,7.50
2023-01-17T00:55:42.703Z,7.40
2023-01-17T00:58:02.854Z,7.40
2023-01-17T01:00:24.022Z,7.40
2023-01-17T01:02:46.037Z,7.40
2023-01-17T01:05:06.300Z,7.40
2023-01-17T01:07:26.676Z,7.30
2023-01-17T01:09:47.292Z,7.20
2023-01-17T01:12:07.888Z,7.10
2023-01-17T01:14:29.700Z,7.10
2023-01-17T01:16:49.840Z,7.20
2023-01-17T01:19:11.570Z,7.10
2023-01-17T01:21:32.032Z,7.00
2023-01-17T01:23:52.387Z,7.10
2023-01-17T01:26:12.941Z,6.90
2023-01-17T01:28:33.971Z,6.90
2023-01-17T01:30:54.212Z,7.00
2023-01-17T01:33:14.667Z,7.00
2023-01-17T01:35:18.811Z,7.00
2023-01-17T01:37:21.508Z,6.90
2023-01-17T01:39:24.246Z,6.80
2023-01-17T01:41:26.941Z,6.90
2023-01-17T01:43:46.015Z,6.90
2023-01-17T01:45:53.768Z,7.00
2023-01-17T01:48:01.205Z,7.10
2023-01-17T01:50:08.071Z,7.00
2023-01-17T01:52:12.779Z,7.00
2023-01-17T01:54:21.869Z,7.00
2023-01-17T01:56:25.205Z,7.00
2023-01-17T01:58:32.933Z,7.10
2023-01-17T02:00:37.385Z,7.00
2023-01-17T02:02:40.439Z,7.10
2023-01-17T02:04:43.921Z,7.00
2023-01-17T02:06:50.869Z,7.10
2023-01-17T02:08:55.840Z,6.90
2023-01-17T02:10:58.583Z,7.00
2023-01-17T02:13:01.701Z,7.10
2023-01-17T02:15:07.913Z,7.10
2023-01-17T02:17:23.361Z,6.90
2023-01-17T02:19:52.197Z,7.00
2023-01-17T02:22:06.464Z,7.00
2023-01-17T02:24:52.609Z,7.00
2023-01-17T02:27:00.627Z,7.20
2023-01-17T02:29:31.401Z,7.30
2023-01-17T02:31:40.898Z,7.30
2023-01-17T02:33:52.056Z,7.10
2023-01-17T02:36:04.216Z,7.20
2023-01-17T02:38:16.889Z,7.20
2023-01-17T02:40:24.233Z,7.30
2023-01-17T02:42:32.882Z,7.10
2023-01-17T02:44:41.532Z,7.10
2023-01-17T02:46:47.691Z,7.10
2023-01-17T02:48:51.416Z,7.10
2023-01-17T02:51:07.008Z,7.10
2023-01-17T02:53:27.229Z,7.00
2023-01-17T02:55:40.372Z,7.00
2023-01-17T02:57:58.776Z,7.00
2023-01-17T03:00:07.135Z,7.10
2023-01-17T03:02:22.123Z,7.10
2023-01-17T03:04:29.248Z,7.30
2023-01-17T03:06:37.370Z,7.30
2023-01-17T03:08:42.228Z,7.40
2023-01-17T03:10:46.055Z,7.40
2023-01-17T03:12:49.009Z,7.50
2023-01-17T03:14:51.708Z,7.60
2023-01-17T03:16:54.539Z,7.60
2023-01-17T03:18:58.631Z,7.70
2023-01-17T03:21:01.488Z,7.60
2023-01-17T03:23:04.413Z,7.60
2023-01-17T03:25:07.935Z,7.60
2023-01-17T03:27:10.606Z,7.60
2023-01-17T03:29:13.289Z,7.60
2023-01-17T03:31:16.772Z,7.70
2023-01-17T03:33:19.514Z,7.70
2023-01-17T03:35:23.588Z,7.50
2023-01-17T03:37:26.309Z,7.40
2023-01-17T03:39:29.084Z,7.40
2023-01-17T03:41:31.807Z,7.40
2023-01-17T03:43:34.541Z,7.50
2023-01-17T03:45:37.255Z,7.60
2023-01-17T03:47:39.949Z,7.30
2023-01-17T03:49:42.837Z,7.20
2023-01-17T03:51:46.866Z,7.50
2023-01-17T03:53:50.617Z,7.60
2023-01-17T03:55:53.330Z,7.60
2023-01-17T03:57:56.040Z,7.60
2023-01-17T03:59:58.763Z,7.70
2023-01-17T04:02:01.985Z,7.60
2023-01-17T04:04:05.188Z,7.60
2023-01-17T04:06:08.379Z,7.50
2023-01-17T04:08:12.395Z,7.40
2023-01-17T04:10:15.193Z,7.50
2023-01-17T04:12:17.879Z,7.50
2023-01-17T04:14:20.580Z,7.60
2023-01-17T04:16:29.017Z,7.60
2023-01-17T04:18:31.857Z,7.60
2023-01-17T04:20:37.227Z,7.60
2023-01-17T04:22:39.946Z,7.60
2023-01-17T04:24:43.983Z,7.60
2023-01-17T04:26:46.674Z,7.60
2023-01-17T04:28:49.379Z,7.60
2023-01-17T04:30:52.082Z,7.60
2023-01-17T04:32:55.288Z,7.50
2023-01-17T04:34:57.991Z,7.10
2023-01-17T04:37:00.696Z,7.20
2023-01-17T04:39:03.542Z,7.30
2023-01-17T04:41:07.670Z,7.30
2023-01-17T04:43:10.372Z,7.30
2023-01-17T04:45:13.825Z,7.20
2023-01-17T04:47:16.511Z,7.30
2023-01-17T04:49:19.179Z,7.30
2023-01-17T04:51:21.885Z,7.20
2023-01-17T04:53:24.651Z,7.00
2023-01-17T04:55:27.782Z,7.00
2023-01-17T04:57:31.813Z,7.10
2023-01-17T04:59:34.513Z,7.20
2023-01-17T05:01:37.317Z,6.70
2023-01-17T05:03:40.236Z,6.80
2023-01-17T05:05:44.316Z,7.00
2023-01-17T05:07:54.688Z,6.90
2023-01-17T05:09:57.414Z,6.80
2023-01-17T05:12:00.196Z,6.80
2023-01-17T05:14:04.221Z,6.90
2023-01-17T05:16:07.372Z,6.60
2023-01-17T05:18:13.160Z,6.90
2023-01-17T05:20:15.959Z,6.90
2023-01-17T05:22:18.717Z,6.90
2023-01-17T05:24:21.945Z,7.00
2023-01-17T05:26:24.840Z,7.00
2023-01-17T05:28:27.652Z,7.10
2023-01-17T05:30:33.184Z,7.10
2023-01-17T05:32:35.915Z,7.20
2023-01-17T05:34:38.644Z,7.20
2023-01-17T05:36:41.419Z,7.20
2023-01-17T05:38:44.130Z,7.30
2023-01-17T05:40:46.838Z,7.10
2023-01-17T05:42:51.709Z,7.20
2023-01-17T05:44:55.124Z,6.90
2023-01-17T05:46:59.138Z,6.90
2023-01-17T05:49:01.838Z,6.80
2023-01-17T05:51:05.078Z,6.90
2023-01-17T05:53:09.767Z,6.90
2023-01-17T05:55:12.621Z,6.80
2023-01-17T05:57:16.953Z,6.60
2023-01-17T05:59:32.266Z,6.60
2023-01-17T06:01:39.033Z,6.60
2023-01-17T06:03:43.062Z,6.70
2023-01-17T06:05:46.839Z,6.60
2023-01-17T06:07:50.519Z,6.50
2023-01-17T06:09:53.435Z,6.60
2023-01-17T06:11:56.149Z,6.70
2023-01-17T06:13:58.888Z,6.80
2023-01-17T06:16:03.970Z,6.60
2023-01-17T06:18:07.463Z,6.70
2023-01-17T06:20:13.014Z,6.70
2023-01-17T06:22:15.737Z,6.80
2023-01-17T06:24:18.430Z,6.70
2023-01-17T06:26:21.127Z,6.50
2023-01-17T06:28:24.634Z,6.60
2023-01-17T06:30:27.313Z,6.60
2023-01-17T06:32:30.031Z,6.80
2023-01-17T06:34:32.821Z,6.80
2023-01-17T06:36:36.846Z,6.80
2023-01-17T06:38:39.569Z,6.80
2023-01-17T06:40:42.290Z,6.90
2023-01-17T06:42:45.159Z,6.90
2023-01-17T06:44:47.847Z,7.00
2023-01-17T06:46:50.662Z,6.50
2023-01-17T06:48:53.410Z,6.50
2023-01-17T06:50:57.890Z,6.50
2023-01-17T06:53:04.441Z,6.40
2023-01-17T06:55:08.412Z,6.60
2023-01-17T06:57:11.165Z,6.60
2023-01-17T06:59:13.894Z,6.40
2023-01-17T07:01:16.668Z,6.50
2023-01-17T07:03:22.065Z,6.50
2023-01-17T07:05:24.902Z,6.40
2023-01-17T07:07:27.595Z,6.20
2023-01-17T07:09:31.637Z,6.20
2023-01-17T07:11:34.524Z,6.10
2023-01-17T07:13:38.526Z,6.20
2023-01-17T07:15:41.245Z,6.30
2023-01-17T07:17:43.948Z,6.60
2023-01-17T07:19:46.642Z,6.30
2023-01-17T07:21:51.592Z,6.20
2023-01-17T07:23:54.286Z,5.50
2023-01-17T07:26:00.359Z,5.30
2023-01-17T07:28:03.069Z,4.80
2023-01-17T07:30:06.711Z,4.90
2023-01-17T07:32:10.914Z,5.40
2023-01-17T07:34:13.639Z,5.40
2023-01-17T07:36:16.386Z,5.40
2023-01-17T07:38:20.667Z,5.20
2023-01-17T07:40:24.382Z,5.20
2023-01-17T07:42:28.404Z,5.40
2023-01-17T07:44:31.098Z,5.70
2023-01-17T07:46:33.868Z,5.70
2023-01-17T07:48:36.635Z,5.80
2023-01-17T07:50:40.045Z,5.70
2023-01-17T07:52:42.772Z,5.50
2023-01-17T07:54:45.460Z,5.20
2023-01-17T07:56:48.292Z,5.40
2023-01-17T07:58:52.372Z,5.40
2023-01-17T08:00:55.178Z,5.20
2023-01-17T08:02:59.288Z,5.30
2023-01-17T08:05:01.986Z,5.30
2023-01-17T08:07:04.688Z,5.30
2023-01-17T08:09:07.391Z,5.60
2023-01-17T08:11:10.090Z,5.50
2023-01-17T08:13:12.779Z,5.70
2023-01-17T08:15:18.113Z,5.80
2023-01-17T08:17:21.703Z,5.60
2023-01-17T08:19:24.375Z,5.50
2023-01-17T08:21:27.069Z,5.30
2023-01-17T08:23:31.131Z,5.20
2023-01-17T08:25:35.299Z,5.20
2023-01-17T08:27:38.068Z,5.20
2023-01-17T08:29:42.771Z,5.40
2023-01-17T08:31:47.190Z,5.40
2023-01-17T08:33:49.948Z,5.40
2023-01-17T08:35:53.821Z,5.40
2023-01-17T08:37:57.625Z,5.80
2023-01-17T08:40:00.350Z,6.00
2023-01-17T08:42:03.304Z,5.90
2023-01-17T08:44:06.344Z,6.30
2023-01-17T08:46:09.122Z,6.60
2023-01-17T08:48:13.258Z,6.40
2023-01-17T08:50:20.534Z,6.20
2023-01-17T08:52:23.205Z,6.10
2023-01-17T08:54:25.897Z,6.10
2023-01-17T08:56:28.574Z,6.00
2023-01-17T08:58:32.684Z,5.90
2023-01-17T09:00:35.521Z,6.20
2023-01-17T09:02:38.231Z,6.20
2023-01-17T09:04:44.854Z,6.10
2023-01-17T09:06:48.351Z,6.20
2023-01-17T09:08:54.764Z,6.20
2023-01-17T09:10:57.550Z,6.70
2023-01-17T09:13:00.281Z,6.80
2023-01-17T09:15:03.167Z,6.80
2023-01-17T09:17:07.019Z,6.60
2023-01-17T09:19:10.247Z,6.20
2023-01-17T09:21:16.254Z,6.40
2023-01-17T09:23:18.979Z,6.10
2023-01-17T09:25:22.263Z,6.20
2023-01-17T09:27:25.003Z,6.00
2023-01-17T09:29:27.954Z,5.90
2023-01-17T09:31:30.733Z,6.00
2023-01-17T09:33:33.428Z,5.80
2023-01-17T09:35:36.147Z,6.00
2023-01-17T09:37:40.220Z,6.30
2023-01-17T09:39:42.924Z,6.50
2023-01-17T09:41:52.040Z,6.60
2023-01-17T09:44:00.288Z,6.80
2023-01-17T09:46:03.584Z,6.80
2023-01-17T09:48:10.920Z,7.00
2023-01-17T09:50:26.260Z,7.40
2023-01-17T09:52:33.282Z,7.30
2023-01-17T09:54:41.392Z,7.40
2023-01-17T09:56:48.873Z,7.50
2023-01-17T09:59:07.172Z,7.40
2023-01-17T10:01:16.642Z,7.40
2023-01-17T10:03:42.028Z,7.50
2023-01-17T10:05:58.934Z,7.70
2023-01-17T10:08:15.749Z,7.10
2023-01-17T10:10:33.345Z,6.70
2023-01-17T10:12:45.480Z,6.40
2023-01-17T10:15:08.793Z,6.40
2023-01-17T10:17:20.078Z,6.20
2023-01-17T10:19:44.815Z,6.40
2023-01-17T10:22:04.780Z,6.40
2023-01-17T10:24:29.679Z,6.60
2023-01-17T10:26:35.006Z,6.40
2023-01-17T10:28:42.414Z,6.50
2023-01-17T10:30:49.853Z,6.80
2023-01-17T10:32:52.618Z,7.00
2023-01-17T10:35:01.395Z,7.10
2023-01-17T10:37:13.434Z,7.40
2023-01-17T10:39:20.382Z,7.40
2023-01-17T10:41:28.478Z,7.20
2023-01-17T10:43:41.646Z,7.20
2023-01-17T10:45:51.787Z,7.40
2023-01-17T10:48:09.834Z,7.40
2023-01-17T10:50:13.131Z,7.40
2023-01-17T10:52:24.341Z,7.40
2023-01-17T10:54:41.711Z,7.50
2023-01-17T10:56:44.544Z,7.60
2023-01-17T10:58:50.078Z,7.80
2023-01-17T11:00:58.794Z,7.80
2023-01-17T11:03:02.748Z,7.90
2023-01-17T11:05:19.240Z,7.90
2023-01-17T11:07:24.101Z,7.90
2023-01-17T11:09:39.023Z,7.90
2023-01-17T11:11:48.787Z,7.80
2023-01-17T11:13:55.563Z,7.80
2023-01-17T11:16:02.168Z,7.70
2023-01-17T11:18:08.287Z,7.80
2023-01-17T11:20:19.916Z,7.60
2023-01-17T11:22:23.620Z,7.50
2023-01-17T11:24:32.449Z,7.70
2023-01-17T11:26:37.665Z,8.00
2023-01-17T11:28:41.847Z,8.20
2023-01-17T11:30:52.867Z,8.30
2023-01-17T11:32:57.624Z,7.70
2023-01-17T11:35:15.201Z,7.90
2023-01-17T11:37:20.612Z,7.70
2023-01-17T11:39:27.395Z,7.80
2023-01-17T11:41:35.382Z,7.70
2023-01-17T11:43:51.104Z,7.70
2023-01-17T11:46:17.792Z,7.70
2023-01-17T11:48:21.874Z,7.70
2023-01-17T11:50:25.781Z,7.80
2023-01-17T11:52:37.504Z,7.90
2023-01-17T11:54:42.513Z,8.10
2023-01-17T11:56:46.401Z,8.30
2023-01-17T11:58:49.448Z,8.30
2023-01-17T12:00:59.612Z,8.30
2023-01-17T12:03:15.985Z,8.60
2023-01-17T12:05:40.990Z,8.80
2023-01-17T12:07:52.090Z,9.00
2023-01-17T12:10:03.158Z,9.10
2023-01-17T12:12:31.815Z,9.10
2023-01-17T12:14:44.032Z,9.00
2023-01-17T12:17:03.885Z,9.10
2023-01-17T12:19:27.811Z,9.00
2023-01-17T12:21:41.025Z,9.00
2023-01-17T12:24:01.888Z,9.10
2023-01-17T12:26:20.647Z,9.00
2023-01-17T12:28:44.599Z,9.00
2023-01-17T12:31:11.772Z,9.10
2023-01-17T12:33:24.886Z,9.10
2023-01-17T12:35:32.909Z,9.10
2023-01-17T12:37:39.535Z,9.10
2023-01-17T12:39:47.465Z,9.20
2023-01-17T12:41:58.178Z,9.10
2023-01-17T12:44:02.348Z,8.60
2023-01-17T12:46:12.701Z,8.50
2023-01-17T12:48:18.696Z,8.20
2023-01-17T12:50:27.978Z,8.00
2023-01-17T12:52:45.176Z,8.00
2023-01-17T12:54:54.179Z,7.90
2023-01-17T12:57:02.126Z,8.00
2023-01-17T12:59:15.647Z,8.00
2023-01-17T13:01:30.864Z,8.10
2023-01-17T13:03:45.929Z,8.10
2023-01-17T13:05:50.574Z,8.10
2023-01-17T13:08:00.273Z,8.30
2023-01-17T13:10:10.158Z,8.20
2023-01-17T13:12:15.206Z,8.20
2023-01-17T13:14:17.985Z,8.30
2023-01-17T13:16:26.131Z,8.20
2023-01-17T13:18:33.123Z,8.10
2023-01-17T13:21:04.807Z,8.10
2023-01-17T13:23:16.174Z,8.20
2023-01-17T13:25:37.521Z,8.30
2023-01-17T13:27:56.274Z,8.20
2023-01-17T13:30:19.313Z,8.20
2023-01-17T13:32:56.066Z,8.20
2023-01-17T13:35:19.124Z,8.20
2023-01-17T13:37:56.180Z,7.90
2023-01-17T13:40:21.154Z,8.10
2023-01-17T13:42:29.991Z,7.80
2023-01-17T13:44:33.380Z,7.90
2023-01-17T13:46:57.562Z,8.10
2023-01-17T13:49:21.532Z,8.10
2023-01-17T13:52:05.635Z,8.30
2023-01-17T13:54:08.706Z,8.50
2023-01-17T13:56:14.264Z,8.50
2023-01-17T13:58:29.947Z,8.50
2023-01-17T14:01:00.011Z,8.50
2023-01-17T14:03:02.888Z,8.70
2023-01-17T14:05:12.153Z,8.50
2023-01-17T14:07:25.051Z,8.50
2023-01-17T14:09:33.414Z,8.30
2023-01-17T14:11:37.886Z,8.10
2023-01-17T14:13:41.088Z,7.80
2023-01-17T14:15:50.657Z,7.90
2023-01-17T14:17:59.477Z,8.00
2023-01-17T14:20:36.485Z,8.00
2023-01-17T14:22:48.089Z,8.00
2023-01-17T14:24:59.702Z,7.80
2023-01-17T14:27:17.063Z,7.60
2023-01-17T14:29:49.719Z,7.50
2023-01-17T14:32:01.733Z,7.50
2023-01-17T14:34:13.216Z,7.40
2023-01-17T14:36:25.431Z,7.50
2023-01-17T14:38:31.588Z,7.50
2023-01-17T14:40:36.514Z,7.60
2023-01-17T14:42:39.785Z,7.50
2023-01-17T14:44:47.010Z,7.30
2023-01-17T14:46:50.251Z,7.20
2023-01-17T14:48:59.609Z,7.10
2023-01-17T14:51:02.389Z,7.10
2023-01-17T14:53:19.963Z,7.10
2023-01-17T14:55:24.071Z,7.20
2023-01-17T14:57:29.297Z,7.20
2023-01-17T14:59:32.035Z,7.20
2023-01-17T15:01:36.245Z,7.20
2023-01-17T15:03:45.592Z,7.10
2023-01-17T15:05:52.162Z,6.60
2023-01-17T15:07:57.342Z,6.40
2023-01-17T15:10:00.156Z,6.30
2023-01-17T15:12:05.018Z,6.20
2023-01-17T15:14:08.181Z,6.20
2023-01-17T15:16:21.088Z,6.30
2023-01-17T15:18:27.704Z,6.40
2023-01-17T15:20:30.736Z,6.40
2023-01-17T15:22:34.625Z,6.30
2023-01-17T15:24:44.441Z,6.10
2023-01-17T15:26:47.365Z,6.00
2023-01-17T15:28:52.707Z,6.10
2023-01-17T15:31:11.458Z,6.10
2023-01-17T15:33:20.739Z,6.20
2023-01-17T15:35:25.039Z,6.20
2023-01-17T15:37:32.441Z,6.10
2023-01-17T15:39:36.843Z,6.10
2023-01-17T15:41:40.919Z,5.90
2023-01-17T15:43:45.895Z,5.80
2023-01-17T15:45:57.192Z,5.80
2023-01-17T15:48:38.319Z,5.80
2023-01-17T15:50:41.447Z,5.80
2023-01-17T15:52:50.104Z,5.70
2023-01-17T15:54:54.599Z,5.50
2023-01-17T15:57:18.486Z,5.10
2023-01-17T15:59:28.131Z,5.10
2023-01-17T16:01:32.421Z,5.10
2023-01-17T16:03:36.190Z,5.10
2023-01-17T16:05:44.613Z,5.10
2023-01-17T16:07:47.394Z,5.20
2023-01-17T16:09:51.001Z,5.10
2023-01-17T16:11:53.734Z,5.10
2023-01-17T16:13:56.409Z,5.10
2023-01-17T16:16:12.862Z,5.20
2023-01-17T16:18:19.663Z,5.10
2023-01-17T16:20:29.507Z,4.80
2023-01-17T16:22:32.267Z,4.90
2023-01-17T16:24:34.952Z,4.90
2023-01-17T16:26:37.673Z,4.90
2023-01-17T16:28:40.378Z,4.90
2023-01-17T16:30:45.057Z,4.90
2023-01-17T16:32:49.301Z,4.90
2023-01-17T16:34:53.351Z,5.00
2023-01-17T16:36:56.020Z,4.90
2023-01-17T16:38:58.796Z,4.90
2023-01-17T16:41:05.076Z,4.80
2023-01-17T16:43:07.815Z,4.80
2023-01-17T16:45:11.995Z,4.70
2023-01-17T16:47:14.736Z,4.70
2023-01-17T16:49:18.640Z,4.80
2023-01-17T16:51:22.739Z,4.70
2023-01-17T16:53:27.095Z,4.60
2023-01-17T16:55:29.819Z,4.70
2023-01-17T16:57:32.522Z,4.60
2023-01-17T16:59:49.914Z,4.60
2023-01-17T17:01:53.732Z,4.50
2023-01-17T17:03:56.735Z,4.40
2023-01-17T17:06:02.368Z,4.40
2023-01-17T17:08:06.716Z,4.40
2023-01-17T17:10:10.961Z,4.30
2023-01-17T17:12:13.978Z,4.20
2023-01-17T17:14:16.677Z,4.20
2023-01-17T17:16:21.344Z,4.10
2023-01-17T17:18:24.026Z,4.10
2023-01-17T17:20:26.779Z,4.00
2023-01-17T17:22:29.460Z,3.90
2023-01-17T17:24:33.545Z,3.80
2023-01-17T17:26:37.973Z,3.90
2023-01-17T17:28:40.693Z,4.00
2023-01-17T17:30:43.398Z,3.90
2023-01-17T17:32:47.736Z,3.90
2023-01-17T17:34:53.051Z,3.90
2023-01-17T17:36:55.729Z,3.80
2023-01-17T17:38:59.327Z,3.80
2023-01-17T17:41:10.657Z,3.60
2023-01-17T17:43:13.643Z,3.60
2023-01-17T17:45:16.495Z,3.50
2023-01-17T17:47:19.401Z,3.50
2023-01-17T17:49:22.679Z,3.60
2023-01-17T17:51:27.567Z,3.50
2023-01-17T17:53:30.627Z,3.50
2023-01-17T17:55:35.135Z,3.60
2023-01-17T17:57:39.159Z,3.70
2023-01-17T17:59:41.879Z,3.60
2023-01-17T18:01:44.938Z,3.70
2023-01-17T18:03:47.730Z,3.60
2023-01-17T18:05:50.495Z,3.60
2023-01-17T18:07:53.607Z,3.60
2023-01-17T18:09:56.416Z,3.60
2023-01-17T18:11:59.133Z,3.60
2023-01-17T18:14:06.691Z,3.40
2023-01-17T18:16:11.293Z,3.30
2023-01-17T18:18:14.060Z,3.10
2023-01-17T18:20:17.495Z,2.90
2023-01-17T18:22:20.172Z,3.00
2023-01-17T18:24:25.054Z,3.00
2023-01-17T18:26:29.529Z,3.10
2023-01-17T18:28:32.205Z,3.20
2023-01-17T18:30:38.498Z,3.20
2023-01-17T18:32:41.867Z,3.10
2023-01-17T18:34:44.963Z,3.10
2023-01-17T18:36:48.322Z,3.10
2023-01-17T18:38:52.798Z,3.10
2023-01-17T18:40:55.634Z,3.10
2023-01-17T18:42:58.336Z,3.10
2023-01-17T18:45:01.125Z,3.10
2023-01-17T18:47:05.563Z,3.10
2023-01-17T18:49:08.735Z,3.00
2023-01-17T18:51:13.289Z,3.00
2023-01-17T18:53:17.599Z,3.00
2023-01-17T18:55:20.338Z,3.00
2023-01-17T18:57:24.075Z,3.00
2023-01-17T18:59:26.796Z,2.90
2023-01-17T19:01:32.027Z,2.90
2023-01-17T19:03:38.115Z,2.90
2023-01-17T19:05:41.561Z,2.80
2023-01-17T19:07:44.297Z,2.80
2023-01-17T19:09:47.015Z,2.70
2023-01-17T19:11:50.068Z,2.70
2023-01-17T19:13:53.382Z,2.60
2023-01-17T19:16:00.360Z,2.70
2023-01-17T19:18:03.742Z,2.60
2023-01-17T19:20:09.379Z,2.60
2023-01-17T19:22:12.107Z,2.60
2023-01-17T19:24:14.780Z,2.60
2023-01-17T19:26:19.882Z,2.60
2023-01-17T19:28:23.063Z,2.60
2023-01-17T19:30:26.212Z,2.60
2023-01-17T19:32:28.936Z,2.70
2023-01-17T19:34:31.692Z,2.80
2023-01-17T19:36:37.996Z,2.70
2023-01-17T19:38:42.827Z,2.70
2023-01-17T19:40:48.204Z,2.60
2023-01-17T19:42:50.895Z,2.60
2023-01-17T19:44:53.609Z,2.60
2023-01-17T19:46:57.144Z,2.70
2023-01-17T19:48:59.853Z,2.70
2023-01-17T19:51:07.734Z,2.70
2023-01-17T19:53:11.773Z,2.70
2023-01-17T19:55:14.492Z,2.60
2023-01-17T19:57:17.796Z,2.60
2023-01-17T19:59:20.949Z,2.60
2023-01-17T20:01:27.668Z,2.70
2023-01-17T20:03:30.449Z,2.70
2023-01-17T20:05:33.512Z,2.60
2023-01-17T20:07:36.261Z,2.50
2023-01-17T20:09:40.340Z,2.50
2023-01-17T20:11:43.189Z,2.50
2023-01-17T20:13:46.272Z,2.60
2023-01-17T20:15:49.009Z,2.60
2023-01-17T20:17:51.711Z,2.70
2023-01-17T20:19:54.390Z,2.60
2023-01-17T20:21:57.099Z,2.50
2023-01-17T20:24:03.191Z,2.50
2023-01-17T20:26:07.497Z,2.60
2023-01-17T20:28:10.335Z,2.40
2023-01-17T20:30:20.041Z,2.40
2023-01-17T20:32:23.723Z,2.30
2023-01-17T20:34:26.575Z,2.40
2023-01-17T20:36:30.025Z,2.50
2023-01-17T20:38:43.395Z,2.50
2023-01-17T20:40:54.176Z,2.60
2023-01-17T20:42:58.195Z,2.30
2023-01-17T20:45:01.212Z,2.30
2023-01-17T20:47:04.459Z,2.30
2023-01-17T20:49:08.301Z,2.40
2023-01-17T20:51:12.226Z,2.40
2023-01-17T20:53:16.022Z,2.40
2023-01-17T20:55:19.322Z,2.30
2023-01-17T20:57:22.693Z,2.40
2023-01-17T20:59:26.801Z,2.40
2023-01-17T21:01:29.562Z,2.50
2023-01-17T21:03:35.063Z,2.40
2023-01-17T21:05:38.013Z,2.40
2023-01-17T21:07:40.718Z,2.40
2023-01-17T21:09:43.733Z,2.40
2023-01-17T21:11:47.142Z,2.30
2023-01-17T21:13:51.161Z,2.20
2023-01-17T21:15:55.525Z,2.30
2023-01-17T21:17:58.342Z,2.30
2023-01-17T21:20:01.177Z,2.30
2023-01-17T21:22:05.366Z,2.30
2023-01-17T21:24:08.554Z,2.40
2023-01-17T21:26:13.736Z,2.40
2023-01-17T21:28:16.450Z,2.30
2023-01-17T21:30:19.483Z,2.30
2023-01-17T21:32:23.539Z,2.40
2023-01-17T21:34:27.560Z,2.40
2023-01-17T21:36:33.055Z,2.40
2023-01-17T21:38:35.741Z,2.50
2023-01-17T21:40:38.467Z,2.50
2023-01-17T21:42:41.158Z,2.50
2023-01-17T21:44:45.214Z,2.40
2023-01-17T21:46:48.554Z,2.40
2023-01-17T21:48:52.682Z,2.50
2023-01-17T21:50:55.412Z,2.50
2023-01-17T21:52:58.100Z,2.60
2023-01-17T21:55:18.566Z,2.40
2023-01-17T21:57:40.367Z,2.20
2023-01-17T21:59:43.046Z,2.20
2023-01-17T22:01:45.830Z,2.30
2023-01-17T22:03:50.248Z,2.20
2023-01-17T22:05:56.488Z,2.00
2023-01-17T22:08:15.248Z,1.90
2023-01-17T22:10:18.434Z,2.10
2023-01-17T22:12:21.176Z,2.30
2023-01-17T22:14:23.943Z,2.20
2023-01-17T22:16:26.936Z,2.00
2023-01-17T22:18:30.350Z,1.80
2023-01-17T22:20:33.119Z,1.90
2023-01-17T22:22:37.624Z,2.10
2023-01-17T22:24:41.199Z,2.30
2023-01-17T22:26:43.969Z,2.00
2023-01-17T22:28:47.012Z,2.20
2023-01-17T22:30:49.750Z,2.40
2023-01-17T22:32:52.442Z,2.40
2023-01-17T22:34:55.136Z,2.40
2023-01-17T22:36:57.832Z,2.50
2023-01-17T22:39:02.233Z,2.50
2023-01-17T22:41:08.611Z,2.50
2023-01-17T22:43:11.409Z,2.50
2023-01-17T22:45:14.471Z,2.50
2023-01-17T22:47:17.135Z,2.50
2023-01-17T22:49:23.334Z,2.60
2023-01-17T22:51:28.511Z,2.60
2023-01-17T22:53:31.732Z,2.60
2023-01-17T22:55:35.803Z,2.60
2023-01-17T22:57:38.547Z,2.60
2023-01-17T22:59:41.215Z,2.60
2023-01-17T23:01:43.947Z,2.70
2023-01-17T23:03:49.420Z,2.70
2023-01-17T23:05:52.310Z,2.40
2023-01-17T23:07:55.002Z,2.50
2023-01-17T23:09:57.702Z,2.60
2023-01-17T23:12:01.780Z,2.60
2023-01-17T23:14:04.471Z,2.70
2023-01-17T23:16:25.389Z,2.70
2023-01-17T23:18:45.582Z,2.70
2023-01-17T23:20:48.274Z,2.80
2023-01-17T23:22:51.715Z,2.80
2023-01-17T23:24:56.511Z,2.80
2023-01-17T23:27:22.173Z,2.80
2023-01-17T23:29:26.261Z,2.70
2023-01-17T23:31:28.975Z,2.80
2023-01-17T23:33:31.689Z,2.80
2023-01-17T23:35:41.325Z,2.80
2023-01-17T23:38:02.108Z,2.80
2023-01-17T23:40:05.246Z,2.70
2023-01-17T23:42:26.031Z,2.70
2023-01-17T23:44:31.738Z,2.70
2023-01-17T23:46:34.884Z,2.70
2023-01-17T23:48:37.586Z,2.70
2023-01-17T23:50:42.147Z,2.60
2023-01-17T23:52:44.877Z,2.60
2023-01-17T23:54:48.442Z,2.70
2023-01-17T23:56:51.134Z,2.60
2023-01-17T23:58:53.863Z,2.60
